createdAt,value
2019-04-01T00:00:47.032Z,4.50
2019-04-01T00:03:15.698Z,4.48
2019-04-01T00:05:45.802Z,4.46
2019-04-01T00:08:14.375Z,4.54
2019-04-01T00:10:42.982Z,4.45
2019-04-01T00:13:11.542Z,4.55
2019-04-01T00:15:40.227Z,4.46
2019-04-01T00:18:08.856Z,4.56
2019-04-01T00:20:37.745Z,4.55
2019-04-01T00:23:06.645Z,4.58
2019-04-01T00:25:38.636Z,4.50
2019-04-01T00:28:07.201Z,4.40
2019-04-01T00:30:35.874Z,4.40
2019-04-01T00:33:05.876Z,4.40
2019-04-01T00:35:34.504Z,4.34
2019-04-01T00:38:03.184Z,4.23
2019-04-01T00:40:31.754Z,4.18
2019-04-01T00:43:05.458Z,4.14
2019-04-01T00:45:35.682Z,4.10
2019-04-01T00:48:04.326Z,4.10
2019-04-01T00:50:32.877Z,4.12
2019-04-01T00:53:02.459Z,4.09
2019-04-01T00:55:30.993Z,4.16
2019-04-01T00:57:59.562Z,4.25
2019-04-01T01:00:28.240Z,4.14
2019-04-01T01:02:56.736Z,4.08
2019-04-01T01:05:25.406Z,4.31
2019-04-01T01:07:53.971Z,4.38
2019-04-01T01:10:22.602Z,4.50
2019-04-01T01:12:51.250Z,4.61
2019-04-01T01:15:19.929Z,4.64
2019-04-01T01:17:48.566Z,4.66
2019-04-01T01:20:17.747Z,4.69
2019-04-01T01:22:46.286Z,4.71
2019-04-01T01:25:14.913Z,4.81
2019-04-01T01:27:46.487Z,4.89
2019-04-01T01:30:15.228Z,4.82
2019-04-01T01:32:43.863Z,4.76
2019-04-01T01:35:12.526Z,4.77
2019-04-01T01:37:41.156Z,4.82
2019-04-01T01:40:09.828Z,4.89
2019-04-01T01:42:38.384Z,4.94
2019-04-01T01:45:07.940Z,4.95
2019-04-01T01:47:37.354Z,4.98
2019-04-01T01:50:07.491Z,4.95
2019-04-01T01:52:36.047Z,4.96
2019-04-01T01:55:04.924Z,4.97
2019-04-01T01:57:33.563Z,4.95
2019-04-01T02:00:02.169Z,4.97
2019-04-01T02:02:30.727Z,4.88
2019-04-01T02:04:59.284Z,4.80
2019-04-01T02:07:27.848Z,4.65
2019-04-01T02:09:56.521Z,4.64
2019-04-01T02:12:25.120Z,4.64
2019-04-01T02:14:53.791Z,4.61
2019-04-01T02:17:26.651Z,4.52
2019-04-01T02:19:55.179Z,4.36
2019-04-01T02:22:23.678Z,4.33
2019-04-01T02:24:52.245Z,4.30
2019-04-01T02:27:23.546Z,4.24
2019-04-01T02:29:52.197Z,4.19
2019-04-01T02:32:20.873Z,4.17
2019-04-01T02:34:49.490Z,4.14
2019-04-01T02:37:18.357Z,4.07
2019-04-01T02:39:46.908Z,4.02
2019-04-01T02:42:15.544Z,3.98
2019-04-01T02:44:44.082Z,4.07
2019-04-01T02:47:13.826Z,4.04
2019-04-01T02:49:42.511Z,3.94
2019-04-01T02:52:11.173Z,3.79
2019-04-01T02:54:39.739Z,3.60
2019-04-01T02:57:08.369Z,3.60
2019-04-01T02:59:36.861Z,3.57
2019-04-01T03:02:06.779Z,3.47
2019-04-01T03:04:35.420Z,3.39
2019-04-01T03:07:03.994Z,3.58
2019-04-01T03:09:32.597Z,3.59
2019-04-01T03:12:01.233Z,3.44
2019-04-01T03:14:29.967Z,3.48
2019-04-01T03:16:58.602Z,3.53
2019-04-01T03:19:27.283Z,3.51
2019-04-01T03:21:58.896Z,3.51
2019-04-01T03:24:27.541Z,3.54
2019-04-01T03:26:56.188Z,3.51
2019-04-01T03:29:24.871Z,3.48
2019-04-01T03:31:53.422Z,3.47
2019-04-01T03:34:22.095Z,3.38
2019-04-01T03:36:53.435Z,3.20
2019-04-01T03:39:22.382Z,3.14
2019-04-01T03:41:51.022Z,3.03
2019-04-01T03:44:19.806Z,3.16
2019-04-01T03:46:48.394Z,3.23
2019-04-01T03:49:17.073Z,3.22
2019-04-01T03:51:46.647Z,3.12
2019-04-01T03:54:15.281Z,3.11
2019-04-01T03:56:43.965Z,3.14
2019-04-01T03:59:12.590Z,3.11
2019-04-01T04:01:41.222Z,3.13
2019-04-01T04:04:09.867Z,3.07
2019-04-01T04:06:38.498Z,3.06
2019-04-01T04:09:08.186Z,3.07
2019-04-01T04:11:36.815Z,3.11
2019-04-01T04:14:05.449Z,3.07
2019-04-01T04:16:34.156Z,3.06
2019-04-01T04:19:02.799Z,3.20
2019-04-01T04:21:32.745Z,3.17
2019-04-01T04:24:01.314Z,3.35
2019-04-01T04:26:29.992Z,3.44
2019-04-01T04:29:01.271Z,3.59
2019-04-01T04:31:29.923Z,3.69
2019-04-01T04:33:58.684Z,3.74
2019-04-01T04:36:27.403Z,3.80
2019-04-01T04:38:56.091Z,3.81
2019-04-01T04:41:24.706Z,3.80
2019-04-01T04:43:53.349Z,3.80
2019-04-01T04:46:21.921Z,3.76
2019-04-01T04:48:50.564Z,3.83
2019-04-01T04:51:19.196Z,4.06
2019-04-01T04:53:47.964Z,4.16
2019-04-01T04:56:21.771Z,4.38
2019-04-01T04:58:50.930Z,4.67
2019-04-01T05:01:19.814Z,4.66
2019-04-01T05:03:48.974Z,4.74
2019-04-01T05:06:17.769Z,4.94
2019-04-01T05:08:46.642Z,5.09
2019-04-01T05:11:15.490Z,5.15
2019-04-01T05:13:44.397Z,5.31
2019-04-01T05:16:16.787Z,5.33
2019-04-01T05:18:48.546Z,5.53
2019-04-01T05:21:19.129Z,5.76
2019-04-01T05:23:51.647Z,5.85
2019-04-01T05:26:25.363Z,5.96
2019-04-01T05:28:57.806Z,6.31
2019-04-01T05:31:31.819Z,6.55
2019-04-01T05:34:02.248Z,6.77
2019-04-01T05:36:32.406Z,6.94
2019-04-01T05:39:01.478Z,7.08
2019-04-01T05:41:31.357Z,7.36
2019-04-01T05:44:02.283Z,7.62
2019-04-01T05:46:31.184Z,7.82
2019-04-01T05:49:00.205Z,8.05
2019-04-01T05:51:29.802Z,8.34
2019-04-01T05:53:58.775Z,8.64
2019-04-01T05:56:27.640Z,8.83
2019-04-01T05:58:56.273Z,9.07
2019-04-01T06:01:26.599Z,9.30
2019-04-01T06:03:55.407Z,9.43
2019-04-01T06:06:24.719Z,9.57
2019-04-01T06:08:56.898Z,9.76
2019-04-01T06:11:28.457Z,9.93
2019-04-01T06:14:01.481Z,10.12
2019-04-01T06:16:32.853Z,10.34
2019-04-01T06:19:08.002Z,10.64
2019-04-01T06:21:36.886Z,10.95
2019-04-01T06:24:05.669Z,11.08
2019-04-01T06:26:34.493Z,11.40
2019-04-01T06:29:03.484Z,11.62
2019-04-01T06:31:41.203Z,11.75
2019-04-01T06:34:16.021Z,11.87
2019-04-01T06:36:51.136Z,12.08
2019-04-01T06:39:20.327Z,12.07
2019-04-01T06:41:49.410Z,12.14
2019-04-01T06:44:20.144Z,12.63
2019-04-01T06:46:49.128Z,12.72
2019-04-01T06:49:20.300Z,12.98
2019-04-01T06:51:48.324Z,13.54
2019-04-01T06:54:17.149Z,14.43
2019-04-01T06:56:47.239Z,15.54
2019-04-01T06:59:15.926Z,16.37
2019-04-01T07:01:44.542Z,16.65
2019-04-01T07:04:13.281Z,16.80
2019-04-01T07:06:42.474Z,16.37
2019-04-01T07:09:11.164Z,17.56
2019-04-01T07:11:41.516Z,17.78
2019-04-01T07:14:10.256Z,18.15
2019-04-01T07:16:40.167Z,18.72
2019-04-01T07:19:08.923Z,19.25
2019-04-01T07:21:37.692Z,19.44
2019-04-01T07:24:06.575Z,20.38
2019-04-01T07:26:35.352Z,20.74
2019-04-01T07:29:04.024Z,21.35
2019-04-01T07:31:32.666Z,21.84
2019-04-01T07:34:01.554Z,22.65
2019-04-01T07:36:33.489Z,22.63
2019-04-01T07:39:02.221Z,22.74
2019-04-01T07:41:30.983Z,22.79
2019-04-01T07:43:59.625Z,22.83
2019-04-01T07:46:30.966Z,23.23
2019-04-01T07:48:59.753Z,24.06
2019-04-01T07:51:28.445Z,23.50
2019-04-01T07:53:57.188Z,23.72
2019-04-01T07:56:25.887Z,23.20
2019-04-01T07:58:55.052Z,22.94
2019-04-01T08:01:23.895Z,23.41
2019-04-01T08:03:52.793Z,23.10
2019-04-01T08:06:21.533Z,22.56
2019-04-01T08:08:50.427Z,23.41
2019-04-01T08:11:19.278Z,24.57
2019-04-01T08:13:47.990Z,24.57
2019-04-01T08:16:16.770Z,24.80
2019-04-01T08:18:45.423Z,25.68
2019-04-01T08:21:14.257Z,25.70
2019-04-01T08:23:43.114Z,26.16
2019-04-01T08:26:11.911Z,26.00
2019-04-01T08:28:41.905Z,26.91
2019-04-01T08:31:13.316Z,27.14
2019-04-01T08:33:41.639Z,27.90
2019-04-01T08:36:12.022Z,27.54
2019-04-01T08:38:43.273Z,28.59
2019-04-01T08:41:15.073Z,29.13
2019-04-01T08:43:43.851Z,28.27
2019-04-01T08:46:12.610Z,27.82
2019-04-01T08:48:41.304Z,27.80
2019-04-01T08:51:10.095Z,28.37
2019-04-01T08:53:39.517Z,28.85
2019-04-01T08:56:08.193Z,28.78
2019-04-01T08:58:36.903Z,29.82
2019-04-01T09:01:05.791Z,31.13
2019-04-01T09:03:34.506Z,30.68
2019-04-01T09:08:46.730Z,32.20
2019-04-01T09:11:15.665Z,31.35
2019-04-01T09:13:47.110Z,30.96
2019-04-01T09:16:19.284Z,31.94
2019-04-01T09:18:47.627Z,32.95
2019-04-01T09:21:16.230Z,32.42
2019-04-01T09:23:44.860Z,31.56
2019-04-01T09:26:13.585Z,31.89
2019-04-01T09:28:42.142Z,31.68
2019-04-01T09:31:10.779Z,32.44
2019-04-01T09:33:39.464Z,32.12
2019-04-01T09:36:08.024Z,32.90
2019-04-01T09:38:44.498Z,33.98
2019-04-01T09:41:19.369Z,34.16
2019-04-01T09:43:48.759Z,35.22
2019-04-01T09:46:20.698Z,34.06
2019-04-01T09:48:49.344Z,32.70
2019-04-01T09:51:19.551Z,33.52
2019-04-01T09:53:48.373Z,35.33
2019-04-01T09:56:17.123Z,35.51
2019-04-01T09:58:45.789Z,36.11
2019-04-01T10:01:14.414Z,35.76
2019-04-01T10:03:44.537Z,34.97
2019-04-01T10:06:13.223Z,34.29
2019-04-01T10:08:42.963Z,34.89
2019-04-01T10:11:12.851Z,35.73
2019-04-01T10:13:42.120Z,35.42
2019-04-01T10:16:10.772Z,36.22
2019-04-01T10:18:40.689Z,36.26
2019-04-01T10:21:09.682Z,34.14
2019-04-01T10:23:40.921Z,36.49
2019-04-01T10:26:14.115Z,36.31
2019-04-01T10:28:50.801Z,35.93
2019-04-01T10:31:20.032Z,36.35
2019-04-01T10:33:50.823Z,34.90
2019-04-01T10:36:21.490Z,35.99
2019-04-01T10:38:50.420Z,35.32
2019-04-01T10:41:19.373Z,34.42
2019-04-01T10:43:48.257Z,33.43
2019-04-01T10:46:17.178Z,33.88
2019-04-01T10:48:45.997Z,35.60
2019-04-01T10:51:15.013Z,36.23
2019-04-01T10:53:43.978Z,35.75
2019-04-01T10:56:15.224Z,37.23
2019-04-01T10:58:44.340Z,36.09
2019-04-01T11:01:13.327Z,35.51
2019-04-01T11:03:42.205Z,37.02
2019-04-01T11:06:11.155Z,37.22
2019-04-01T11:08:40.268Z,36.61
2019-04-01T11:11:09.104Z,35.60
2019-04-01T11:13:38.080Z,35.38
2019-04-01T11:16:06.942Z,33.49
2019-04-01T11:18:38.596Z,34.58
2019-04-01T11:21:07.447Z,35.84
2019-04-01T11:23:38.491Z,37.15
2019-04-01T11:26:14.746Z,36.75
2019-04-01T11:28:43.678Z,38.70
2019-04-01T11:31:12.640Z,39.78
2019-04-01T11:33:43.117Z,39.59
2019-04-01T11:36:12.121Z,39.08
2019-04-01T11:38:41.010Z,38.50
2019-04-01T11:41:10.048Z,38.00
2019-04-01T11:43:38.932Z,39.75
2019-04-01T11:46:14.910Z,38.29
2019-04-01T11:48:43.256Z,37.64
2019-04-01T11:51:13.415Z,37.75
2019-04-01T11:53:42.079Z,38.15
2019-04-01T11:56:10.950Z,35.74
2019-04-01T11:58:40.342Z,36.00
2019-04-01T12:01:09.019Z,36.49
2019-04-01T12:03:37.624Z,36.85
2019-04-01T12:06:06.253Z,38.37
2019-04-01T12:08:34.808Z,38.38
2019-04-01T12:11:03.492Z,37.12
2019-04-01T12:13:32.084Z,35.11
2019-04-01T12:16:00.713Z,34.01
2019-04-01T12:18:31.134Z,35.33
2019-04-01T12:20:59.772Z,37.59
2019-04-01T12:23:32.739Z,39.44
2019-04-01T12:26:14.933Z,37.89
2019-04-01T12:28:36.826Z,36.84
2019-04-01T12:31:05.559Z,37.17
2019-04-01T12:33:34.320Z,36.64
2019-04-01T12:36:02.938Z,35.51
2019-04-01T12:38:31.618Z,35.29
2019-04-01T12:41:00.293Z,35.96
2019-04-01T12:43:28.998Z,36.14
2019-04-01T12:45:57.641Z,34.93
2019-04-01T12:48:26.236Z,33.37
2019-04-01T12:50:54.858Z,34.68
2019-04-01T12:53:24.913Z,36.43
2019-04-01T12:55:53.465Z,35.69
2019-04-01T12:58:25.202Z,34.75
2019-04-01T13:00:52.517Z,34.01
2019-04-01T13:03:21.128Z,35.78
2019-04-01T13:06:26.011Z,34.31
2019-04-01T13:09:13.966Z,34.21
2019-04-01T13:12:18.621Z,33.27
2019-04-01T13:15:06.762Z,33.74
2019-04-01T13:18:11.481Z,35.55
2019-04-01T13:20:59.044Z,37.11
2019-04-01T13:24:04.918Z,34.94
2019-04-01T13:26:52.925Z,33.93
2019-04-01T13:29:58.019Z,35.27
2019-04-01T13:32:45.630Z,35.31
2019-04-01T13:35:50.049Z,35.69
2019-04-01T13:38:18.779Z,34.90
2019-04-01T13:40:47.468Z,35.43
2019-04-01T13:43:18.849Z,34.49
2019-04-01T13:45:47.519Z,34.72
2019-04-01T13:48:16.160Z,34.76
2019-04-01T13:50:44.731Z,33.99
2019-04-01T13:53:13.405Z,32.36
2019-04-01T13:55:42.004Z,32.65
2019-04-01T13:58:10.957Z,32.28
2019-04-01T14:00:39.671Z,32.56
2019-04-01T14:03:11.074Z,32.24
2019-04-01T14:05:38.555Z,32.90
2019-04-01T14:08:07.622Z,31.90
2019-04-01T14:10:36.258Z,33.43
2019-04-01T14:13:04.892Z,33.20
2019-04-01T14:15:33.562Z,33.00
2019-04-01T14:18:02.086Z,34.03
2019-04-01T14:20:30.702Z,33.11
2019-04-01T14:22:59.348Z,33.59
2019-04-01T14:25:28.013Z,34.57
2019-04-01T14:27:56.635Z,34.60
2019-04-01T14:30:25.297Z,34.10
2019-04-01T14:32:53.842Z,34.50
2019-04-01T14:35:23.781Z,33.07
2019-04-01T14:37:52.717Z,32.55
2019-04-01T14:40:21.381Z,32.01
2019-04-01T14:42:50.010Z,33.12
2019-04-01T14:45:18.685Z,32.78
2019-04-01T14:47:57.186Z,31.39
2019-04-01T14:50:17.684Z,32.37
2019-04-01T14:52:46.311Z,31.66
2019-04-01T14:55:14.933Z,31.96
2019-04-01T14:57:43.489Z,29.43
2019-04-01T15:00:13.638Z,29.65
2019-04-01T15:02:42.428Z,29.68
2019-04-01T15:05:11.273Z,30.31
2019-04-01T15:07:39.921Z,30.28
2019-04-01T15:10:08.768Z,30.40
2019-04-01T15:12:37.444Z,30.05
2019-04-01T15:15:08.866Z,30.68
2019-04-01T15:17:37.557Z,30.24
2019-04-01T15:20:07.688Z,30.09
2019-04-01T15:22:36.367Z,29.05
2019-04-01T15:25:07.058Z,29.13
2019-04-01T15:27:35.604Z,28.92
2019-04-01T15:30:05.786Z,28.25
2019-04-01T15:32:34.336Z,28.52
2019-04-01T15:35:03.076Z,28.34
2019-04-01T15:37:32.253Z,28.96
2019-04-01T15:40:00.943Z,27.25
2019-04-01T15:42:29.501Z,26.82
2019-04-01T15:44:58.031Z,27.11
2019-04-01T15:47:29.081Z,26.32
2019-04-01T15:49:57.725Z,26.59
2019-04-01T15:52:26.296Z,26.06
2019-04-01T15:54:57.740Z,25.79
2019-04-01T15:57:25.176Z,25.65
2019-04-01T15:59:53.775Z,25.31
2019-04-01T16:02:22.378Z,25.01
2019-04-01T16:04:51.009Z,24.70
2019-04-01T16:07:22.403Z,24.86
2019-04-01T16:09:50.028Z,24.61
2019-04-01T16:12:18.617Z,24.22
2019-04-01T16:14:47.287Z,24.11
2019-04-01T16:17:15.914Z,23.77
2019-04-01T16:19:44.582Z,23.42
2019-04-01T16:22:13.206Z,22.80
2019-04-01T16:24:41.849Z,22.23
2019-04-01T16:27:10.521Z,21.87
2019-04-01T16:29:39.152Z,21.10
2019-04-01T16:32:07.771Z,20.56
2019-04-01T16:34:36.370Z,20.29
2019-04-01T16:37:04.997Z,19.92
2019-04-01T16:39:33.627Z,19.19
2019-04-01T16:42:02.186Z,18.74
2019-04-01T16:44:30.813Z,18.33
2019-04-01T16:46:59.399Z,18.14
2019-04-01T16:49:28.040Z,17.94
2019-04-01T16:52:00.364Z,17.79
2019-04-01T16:54:29.386Z,17.31
2019-04-01T16:56:57.958Z,17.31
2019-04-01T16:59:28.122Z,17.09
2019-04-01T17:01:57.879Z,16.82
2019-04-01T17:04:26.632Z,16.82
2019-04-01T17:06:55.194Z,16.66
2019-04-01T17:09:23.831Z,16.58
2019-04-01T17:11:54.288Z,16.27
2019-04-01T17:14:24.201Z,16.27
2019-04-01T17:16:53.130Z,16.07
2019-04-01T17:19:21.776Z,15.92
2019-04-01T17:21:50.407Z,15.74
2019-04-01T17:24:19.017Z,15.58
2019-04-01T17:27:05.567Z,15.44
2019-04-01T17:29:34.209Z,15.29
2019-04-01T17:32:02.878Z,15.19
2019-04-01T17:34:34.535Z,15.13
2019-04-01T17:37:03.224Z,15.07
2019-04-01T17:39:31.852Z,14.98
2019-04-01T17:42:00.452Z,14.98
2019-04-01T17:44:29.093Z,14.93
2019-04-01T17:46:57.770Z,14.94
2019-04-01T17:49:30.242Z,14.89
2019-04-01T17:52:04.301Z,14.81
2019-04-01T17:54:32.765Z,14.78
2019-04-01T17:57:01.438Z,14.71
2019-04-01T17:59:30.066Z,14.64
2019-04-01T18:01:58.756Z,14.55
2019-04-01T18:04:27.320Z,14.45
2019-04-01T18:06:58.287Z,14.34
2019-04-01T18:09:26.284Z,14.34
2019-04-01T18:11:55.211Z,14.23
2019-04-01T18:14:24.190Z,14.21
2019-04-01T18:16:52.829Z,14.16
2019-04-01T18:19:21.461Z,14.10
2019-04-01T18:21:50.064Z,13.95
2019-04-01T18:24:18.740Z,13.82
2019-04-01T18:26:47.371Z,13.77
2019-04-01T18:29:15.942Z,13.65
2019-04-01T18:31:44.581Z,13.56
2019-04-01T18:34:13.218Z,13.41
2019-04-01T18:36:41.819Z,13.29
2019-04-01T18:39:11.063Z,13.04
2019-04-01T18:41:39.740Z,12.94
2019-04-01T18:44:08.364Z,12.89
2019-04-01T18:46:37.042Z,12.80
2019-04-01T18:49:05.676Z,12.58
2019-04-01T18:51:36.512Z,12.47
2019-04-01T18:54:05.248Z,12.43
2019-04-01T18:56:34.079Z,12.48
2019-04-01T18:59:02.683Z,12.36
2019-04-01T19:01:31.320Z,12.17
2019-04-01T19:03:59.811Z,12.10
2019-04-01T19:06:31.423Z,12.18
2019-04-01T19:09:09.233Z,12.18
2019-04-01T19:11:30.400Z,11.94
2019-04-01T19:14:02.150Z,11.86
2019-04-01T19:16:30.629Z,11.93
2019-04-01T19:18:59.293Z,11.87
2019-04-01T19:21:27.860Z,11.87
2019-04-01T19:23:56.413Z,11.76
2019-04-01T19:26:24.982Z,11.72
2019-04-01T19:28:53.547Z,11.69
2019-04-01T19:31:22.209Z,11.69
2019-04-01T19:33:50.895Z,11.70
2019-04-01T19:36:19.510Z,11.81
2019-04-01T19:38:48.083Z,11.79
2019-04-01T19:41:16.682Z,11.76
2019-04-01T19:43:45.653Z,11.73
2019-04-01T19:46:14.574Z,11.67
2019-04-01T19:48:43.200Z,11.67
2019-04-01T19:51:11.874Z,11.65
2019-04-01T19:53:40.511Z,11.67
2019-04-01T19:56:09.134Z,11.61
2019-04-01T19:58:37.806Z,11.59
2019-04-01T20:01:06.513Z,11.60
2019-04-01T20:03:35.151Z,11.58
2019-04-01T20:06:07.211Z,11.51
2019-04-01T20:08:34.178Z,11.49
2019-04-01T20:11:02.855Z,11.43
2019-04-01T20:13:31.425Z,11.33
2019-04-01T20:15:59.980Z,11.27
2019-04-01T20:18:28.560Z,11.21
2019-04-01T20:20:57.110Z,11.01
2019-04-01T20:23:25.784Z,10.72
2019-04-01T20:25:54.415Z,10.68
2019-04-01T20:28:23.105Z,10.64
2019-04-01T20:30:56.460Z,11.02
2019-04-01T20:33:27.226Z,11.26
2019-04-01T20:35:55.852Z,11.16
2019-04-01T20:38:24.527Z,11.17
2019-04-01T20:40:53.282Z,11.10
2019-04-01T20:43:21.844Z,11.12
2019-04-01T20:45:50.457Z,11.03
2019-04-01T20:48:19.086Z,10.93
2019-04-01T20:50:47.719Z,10.97
2019-04-01T20:53:16.402Z,10.89
2019-04-01T20:55:48.436Z,10.60
2019-04-01T20:58:17.946Z,10.58
2019-04-01T21:00:46.578Z,10.62
2019-04-01T21:03:15.067Z,10.27
2019-04-01T21:05:43.628Z,10.14
2019-04-01T21:08:12.238Z,10.22
2019-04-01T21:10:43.927Z,10.12
2019-04-01T21:13:12.612Z,10.04
2019-04-01T21:15:41.242Z,9.72
2019-04-01T21:18:09.810Z,9.60
2019-04-01T21:20:38.373Z,9.59
2019-04-01T21:23:08.687Z,9.58
2019-04-01T21:25:37.245Z,9.45
2019-04-01T21:28:05.890Z,9.36
2019-04-01T21:30:34.517Z,9.26
2019-04-01T21:33:03.080Z,9.17
2019-04-01T21:35:31.638Z,8.90
2019-04-01T21:38:00.275Z,8.94
2019-04-01T21:40:28.763Z,8.94
2019-04-01T21:42:57.596Z,8.99
2019-04-01T21:45:26.269Z,8.92
2019-04-01T21:47:54.790Z,8.84
2019-04-01T21:50:23.412Z,8.79
2019-04-01T21:52:52.085Z,8.79
2019-04-01T21:55:20.729Z,8.79
2019-04-01T21:57:51.137Z,8.83
2019-04-01T22:00:27.654Z,8.86
2019-04-01T22:02:56.245Z,8.83
2019-04-01T22:05:24.910Z,8.79
2019-04-01T22:07:53.452Z,8.74
2019-04-01T22:10:22.111Z,8.72
2019-04-01T22:12:52.569Z,8.72
2019-04-01T22:15:23.677Z,8.65
2019-04-01T22:17:52.235Z,8.63
2019-04-01T22:20:20.866Z,8.44
2019-04-01T22:22:49.515Z,8.34
2019-04-01T22:25:18.142Z,8.33
2019-04-01T22:27:46.745Z,8.09
2019-04-01T22:30:17.307Z,7.82
2019-04-01T22:32:46.367Z,7.78
2019-04-01T22:35:15.031Z,7.89
2019-04-01T22:37:43.636Z,7.81
2019-04-01T22:40:12.672Z,7.66
2019-04-01T22:42:41.315Z,7.43
2019-04-01T22:45:10.019Z,7.52
2019-04-01T22:47:38.646Z,7.63
2019-04-01T22:50:07.829Z,7.39
2019-04-01T22:52:36.314Z,7.29
2019-04-01T22:55:05.643Z,7.12
2019-04-01T22:57:34.248Z,7.17
2019-04-01T23:00:02.960Z,7.42
2019-04-01T23:02:31.444Z,7.48
2019-04-01T23:04:59.977Z,7.13
2019-04-01T23:07:28.610Z,7.18
2019-04-01T23:09:58.099Z,7.10
2019-04-01T23:12:26.968Z,7.03
2019-04-01T23:14:55.610Z,7.23
2019-04-01T23:17:24.239Z,7.13
2019-04-01T23:19:52.796Z,7.21
2019-04-01T23:22:21.438Z,7.22
2019-04-01T23:24:50.009Z,7.01
2019-04-01T23:27:18.631Z,7.14
2019-04-01T23:29:47.158Z,6.98
2019-04-01T23:32:16.320Z,6.86
2019-04-01T23:34:45.419Z,7.11
2019-04-01T23:37:14.048Z,7.41
2019-04-01T23:39:42.676Z,7.59
2019-04-01T23:42:11.283Z,7.66
2019-04-01T23:44:39.835Z,7.56
2019-04-01T23:47:08.441Z,7.46
2019-04-01T23:49:37.143Z,7.23
2019-04-01T23:52:05.928Z,7.30
2019-04-01T23:54:34.508Z,7.21
2019-04-01T23:57:03.137Z,6.80
2019-04-01T23:59:31.738Z,6.80
